sensor_id;sensor_type;location;lat;lon;timestamp;pressure;altitude;pressure_sealevel;temperature;humidity
48089;BME280;33867;50.314;7.802;2023-04-19T00:19:23;101219.69;;;10.16;73.65
48089;BME280;33867;50.314;7.802;2023-04-19T00:22:42;101215.72;;;10.22;73.52
48089;BME280;33867;50.314;7.802;2023-04-19T00:26:13;101219.13;;;10.24;73.10
48089;BME280;33867;50.314;7.802;2023-04-19T00:29:44;101218.28;;;10.35;72.67
48089;BME280;33867;50.314;7.802;2023-04-19T00:33:03;101215.59;;;10.35;73.02
48089;BME280;33867;50.314;7.802;2023-04-19T00:36:23;101217.78;;;10.18;74.20
48089;BME280;33867;50.314;7.802;2023-04-19T00:39:42;101219.41;;;10.43;73.72
48089;BME280;33867;50.314;7.802;2023-04-19T00:43:01;101217.56;;;10.33;73.25
48089;BME280;33867;50.314;7.802;2023-04-19T00:46:20;101219.47;;;10.08;74.42
48089;BME280;33867;50.314;7.802;2023-04-19T00:54:52;101215.84;;;10.32;73.65
48089;BME280;33867;50.314;7.802;2023-04-19T00:58:13;101211.78;;;10.26;73.73
48089;BME280;33867;50.314;7.802;2023-04-19T01:01:34;101212.41;;;10.30;73.76
48089;BME280;33867;50.314;7.802;2023-04-19T01:04:53;101211.69;;;10.39;73.40
48089;BME280;33867;50.314;7.802;2023-04-19T01:08:13;101205.81;;;10.22;74.09
48089;BME280;33867;50.314;7.802;2023-04-19T01:11:32;101196.81;;;10.00;75.09
48089;BME280;33867;50.314;7.802;2023-04-19T01:14:51;101193.97;;;9.90;75.88
48089;BME280;33867;50.314;7.802;2023-04-19T01:18:37;101191.66;;;9.85;75.52
48089;BME280;33867;50.314;7.802;2023-04-19T01:21:58;101189.78;;;9.75;76.06
48089;BME280;33867;50.314;7.802;2023-04-19T01:25:18;101191.28;;;9.55;77.37
48089;BME280;33867;50.314;7.802;2023-04-19T01:28:37;101195.44;;;9.59;76.66
48089;BME280;33867;50.314;7.802;2023-04-19T01:31:56;101186.97;;;9.41;77.87
48089;BME280;33867;50.314;7.802;2023-04-19T01:35:15;101181.09;;;9.36;78.07
48089;BME280;33867;50.314;7.802;2023-04-19T01:38:34;101176.66;;;9.35;78.14
48089;BME280;33867;50.314;7.802;2023-04-19T01:41:54;101169.38;;;9.37;78.05
48089;BME280;33867;50.314;7.802;2023-04-19T01:45:13;101171.03;;;9.27;79.26
48089;BME280;33867;50.314;7.802;2023-04-19T01:48:32;101172.50;;;9.31;78.61
48089;BME280;33867;50.314;7.802;2023-04-19T01:51:52;101181.72;;;9.40;77.88
48089;BME280;33867;50.314;7.802;2023-04-19T01:55:12;101169.88;;;9.42;78.04
48089;BME280;33867;50.314;7.802;2023-04-19T01:58:32;101172.78;;;9.39;77.84
48089;BME280;33867;50.314;7.802;2023-04-19T02:01:51;101155.72;;;9.51;76.54
48089;BME280;33867;50.314;7.802;2023-04-19T02:05:18;101161.81;;;9.42;77.98
48089;BME280;33867;50.314;7.802;2023-04-19T02:08:39;101162.28;;;9.36;78.93
48089;BME280;33867;50.314;7.802;2023-04-19T02:11:58;101149.81;;;9.46;78.20
48089;BME280;33867;50.314;7.802;2023-04-19T02:15:17;101156.66;;;9.39;78.88
48089;BME280;33867;50.314;7.802;2023-04-19T02:18:36;101156.44;;;9.42;78.13
48089;BME280;33867;50.314;7.802;2023-04-19T02:21:57;101152.59;;;9.33;78.09
48089;BME280;33867;50.314;7.802;2023-04-19T02:25:16;101150.50;;;9.26;79.50
48089;BME280;33867;50.314;7.802;2023-04-19T02:28:38;101151.81;;;9.20;79.34
48089;BME280;33867;50.314;7.802;2023-04-19T02:31:57;101154.31;;;9.11;80.42
48089;BME280;33867;50.314;7.802;2023-04-19T02:35:16;101150.84;;;8.97;81.04
48089;BME280;33867;50.314;7.802;2023-04-19T02:39:03;101148.38;;;8.94;81.01
48089;BME280;33867;50.314;7.802;2023-04-19T02:42:23;101146.50;;;8.84;81.50
48089;BME280;33867;50.314;7.802;2023-04-19T02:45:45;101147.03;;;8.76;82.01
48089;BME280;33867;50.314;7.802;2023-04-19T02:49:05;101150.09;;;8.71;82.36
48089;BME280;33867;50.314;7.802;2023-04-19T02:52:25;101142.56;;;8.76;81.75
48089;BME280;33867;50.314;7.802;2023-04-19T02:55:44;101152.97;;;8.81;81.86
48089;BME280;33867;50.314;7.802;2023-04-19T02:59:08;101144.03;;;8.81;81.14
48089;BME280;33867;50.314;7.802;2023-04-19T03:02:30;101144.16;;;8.79;81.78
48089;BME280;33867;50.314;7.802;2023-04-19T03:05:49;101144.00;;;8.57;83.17
48089;BME280;33867;50.314;7.802;2023-04-19T03:17:43;101126.59;;;8.62;83.24
48089;BME280;33867;50.314;7.802;2023-04-19T03:21:03;101127.34;;;8.64;83.20
48089;BME280;33867;50.314;7.802;2023-04-19T03:24:29;101131.84;;;8.64;82.73
48089;BME280;33867;50.314;7.802;2023-04-19T03:32:30;101132.72;;;8.52;84.99
48089;BME280;33867;50.314;7.802;2023-04-19T03:35:49;101130.13;;;8.63;84.91
48089;BME280;33867;50.314;7.802;2023-04-19T03:39:09;101129.28;;;8.86;82.18
48089;BME280;33867;50.314;7.802;2023-04-19T03:42:37;101127.94;;;8.81;84.65
48089;BME280;33867;50.314;7.802;2023-04-19T03:46:44;101122.75;;;8.90;83.57
48089;BME280;33867;50.314;7.802;2023-04-19T03:50:10;101119.47;;;8.98;81.39
48089;BME280;33867;50.314;7.802;2023-04-19T03:53:31;101115.88;;;8.86;84.29
48089;BME280;33867;50.314;7.802;2023-04-19T03:56:50;101113.72;;;8.91;83.76
48089;BME280;33867;50.314;7.802;2023-04-19T04:00:22;101113.28;;;8.85;84.13
48089;BME280;33867;50.314;7.802;2023-04-19T04:03:48;101111.69;;;8.82;84.75
48089;BME280;33867;50.314;7.802;2023-04-19T04:07:07;101113.94;;;8.88;84.04
48089;BME280;33867;50.314;7.802;2023-04-19T04:10:26;101119.94;;;8.92;84.30
48089;BME280;33867;50.314;7.802;2023-04-19T04:13:45;101125.31;;;8.92;84.41
48089;BME280;33867;50.314;7.802;2023-04-19T04:17:09;101117.50;;;8.89;84.79
48089;BME280;33867;50.314;7.802;2023-04-19T04:20:28;101119.94;;;8.92;85.75
48089;BME280;33867;50.314;7.802;2023-04-19T04:23:55;101127.63;;;8.96;84.36
48089;BME280;33867;50.314;7.802;2023-04-19T04:27:23;101134.72;;;8.97;85.08
48089;BME280;33867;50.314;7.802;2023-04-19T04:30:58;101126.78;;;8.96;85.26
48089;BME280;33867;50.314;7.802;2023-04-19T04:34:21;101135.31;;;9.14;83.42
48089;BME280;33867;50.314;7.802;2023-04-19T04:37:45;101133.75;;;9.22;83.49
48089;BME280;33867;50.314;7.802;2023-04-19T04:41:04;101136.34;;;9.24;84.19
48089;BME280;33867;50.314;7.802;2023-04-19T04:44:23;101133.53;;;9.25;83.92
48089;BME280;33867;50.314;7.802;2023-04-19T04:47:42;101131.09;;;9.33;83.65
48089;BME280;33867;50.314;7.802;2023-04-19T04:55:26;101123.84;;;9.58;80.65
48089;BME280;33867;50.314;7.802;2023-04-19T04:58:46;101130.44;;;9.54;82.42
48089;BME280;33867;50.314;7.802;2023-04-19T05:02:10;101135.44;;;9.47;83.04
48089;BME280;33867;50.314;7.802;2023-04-19T05:05:29;101132.63;;;9.49;83.55
48089;BME280;33867;50.314;7.802;2023-04-19T05:08:49;101128.03;;;9.62;81.77
48089;BME280;33867;50.314;7.802;2023-04-19T05:12:19;101126.94;;;9.76;80.45
48089;BME280;33867;50.314;7.802;2023-04-19T05:15:38;101129.91;;;9.95;79.63
48089;BME280;33867;50.314;7.802;2023-04-19T05:18:57;101124.25;;;9.76;81.30
48089;BME280;33867;50.314;7.802;2023-04-19T05:22:18;101132.06;;;9.79;81.27
48089;BME280;33867;50.314;7.802;2023-04-19T05:25:37;101137.47;;;9.79;82.10
48089;BME280;33867;50.314;7.802;2023-04-19T05:28:59;101131.84;;;9.82;80.93
48089;BME280;33867;50.314;7.802;2023-04-19T05:32:37;101128.69;;;9.99;79.89
48089;BME280;33867;50.314;7.802;2023-04-19T05:35:57;101122.34;;;10.11;79.52
48089;BME280;33867;50.314;7.802;2023-04-19T05:39:16;101130.88;;;9.94;80.75
48089;BME280;33867;50.314;7.802;2023-04-19T05:42:36;101119.03;;;9.96;80.83
48089;BME280;33867;50.314;7.802;2023-04-19T05:45:56;101120.84;;;9.85;81.08
48089;BME280;33867;50.314;7.802;2023-04-19T05:49:15;101116.66;;;9.70;82.47
48089;BME280;33867;50.314;7.802;2023-04-19T05:52:51;101117.94;;;10.10;79.37
48089;BME280;33867;50.314;7.802;2023-04-19T05:56:10;101121.59;;;10.09;79.25
48089;BME280;33867;50.314;7.802;2023-04-19T05:59:29;101116.44;;;10.17;79.78
48089;BME280;33867;50.314;7.802;2023-04-19T06:02:49;101120.25;;;10.15;79.37
48089;BME280;33867;50.314;7.802;2023-04-19T06:06:08;101126.97;;;9.98;80.55
48089;BME280;33867;50.314;7.802;2023-04-19T06:09:27;101115.72;;;10.15;79.68
48089;BME280;33867;50.314;7.802;2023-04-19T06:16:52;101119.41;;;10.37;78.27
48089;BME280;33867;50.314;7.802;2023-04-19T06:20:11;101121.97;;;10.61;77.74
48089;BME280;33867;50.314;7.802;2023-04-19T06:23:30;101114.56;;;10.85;77.95
48089;BME280;33867;50.314;7.802;2023-04-19T06:26:49;101121.09;;;10.71;77.93
48089;BME280;33867;50.314;7.802;2023-04-19T06:30:08;101128.88;;;10.86;76.32
48089;BME280;33867;50.314;7.802;2023-04-19T06:33:27;101128.97;;;10.95;76.63
48089;BME280;33867;50.314;7.802;2023-04-19T06:36:46;101125.41;;;11.06;75.98
48089;BME280;33867;50.314;7.802;2023-04-19T06:40:05;101126.53;;;11.24;75.01
48089;BME280;33867;50.314;7.802;2023-04-19T06:43:25;101126.88;;;11.31;75.23
48089;BME280;33867;50.314;7.802;2023-04-19T06:46:45;101129.94;;;11.05;74.92
48089;BME280;33867;50.314;7.802;2023-04-19T06:50:05;101128.13;;;10.95;74.83
48089;BME280;33867;50.314;7.802;2023-04-19T06:53:25;101117.53;;;11.35;72.11
48089;BME280;33867;50.314;7.802;2023-04-19T06:56:48;101120.97;;;11.58;72.73
48089;BME280;33867;50.314;7.802;2023-04-19T07:00:08;101115.34;;;11.61;71.74
48089;BME280;33867;50.314;7.802;2023-04-19T07:03:28;101112.59;;;11.72;71.89
48089;BME280;33867;50.314;7.802;2023-04-19T07:06:48;101115.13;;;11.53;71.94
48089;BME280;33867;50.314;7.802;2023-04-19T07:10:08;101112.50;;;11.41;71.58
48089;BME280;33867;50.314;7.802;2023-04-19T07:13:27;101110.78;;;11.40;68.25
48089;BME280;33867;50.314;7.802;2023-04-19T07:16:46;101106.13;;;11.42;69.51
48089;BME280;33867;50.314;7.802;2023-04-19T07:20:06;101106.78;;;11.97;69.26
48089;BME280;33867;50.314;7.802;2023-04-19T07:23:25;101100.09;;;11.50;68.48
48089;BME280;33867;50.314;7.802;2023-04-19T07:26:44;101097.44;;;11.39;66.57
48089;BME280;33867;50.314;7.802;2023-04-19T07:30:04;101096.25;;;11.53;68.44
48089;BME280;33867;50.314;7.802;2023-04-19T07:33:23;101098.22;;;11.92;67.03
48089;BME280;33867;50.314;7.802;2023-04-19T07:36:43;101095.72;;;11.59;66.96
48089;BME280;33867;50.314;7.802;2023-04-19T07:40:03;101110.19;;;11.99;67.55
48089;BME280;33867;50.314;7.802;2023-04-19T07:43:23;101093.09;;;11.89;65.07
48089;BME280;33867;50.314;7.802;2023-04-19T07:46:42;101088.41;;;11.91;65.53
48089;BME280;33867;50.314;7.802;2023-04-19T07:50:03;101099.03;;;11.83;64.20
48089;BME280;33867;50.314;7.802;2023-04-19T07:53:24;101093.56;;;11.74;64.19
48089;BME280;33867;50.314;7.802;2023-04-19T07:57:07;101082.94;;;12.43;65.10
48089;BME280;33867;50.314;7.802;2023-04-19T08:00:27;101080.94;;;12.35;62.08
48089;BME280;33867;50.314;7.802;2023-04-19T08:03:47;101081.91;;;12.24;62.76
48089;BME280;33867;50.314;7.802;2023-04-19T08:07:07;101083.06;;;12.41;62.94
48089;BME280;33867;50.314;7.802;2023-04-19T08:10:29;101061.84;;;13.15;61.49
48089;BME280;33867;50.314;7.802;2023-04-19T08:13:48;101072.16;;;13.78;60.31
48089;BME280;33867;50.314;7.802;2023-04-19T08:17:07;101061.19;;;13.80;58.82
48089;BME280;33867;50.314;7.802;2023-04-19T08:20:26;101061.38;;;15.06;56.16
48089;BME280;33867;50.314;7.802;2023-04-19T08:23:46;101054.72;;;15.44;53.52
48089;BME280;33867;50.314;7.802;2023-04-19T08:27:04;101055.25;;;15.47;51.19
48089;BME280;33867;50.314;7.802;2023-04-19T08:30:23;101047.31;;;16.40;51.57
48089;BME280;33867;50.314;7.802;2023-04-19T08:33:42;101047.84;;;16.01;49.05
48089;BME280;33867;50.314;7.802;2023-04-19T08:37:02;101051.16;;;15.43;50.31
48089;BME280;33867;50.314;7.802;2023-04-19T08:40:22;101045.16;;;15.58;49.69
48089;BME280;33867;50.314;7.802;2023-04-19T08:43:42;101049.16;;;15.97;51.65
48089;BME280;33867;50.314;7.802;2023-04-19T08:52:12;101043.53;;;15.91;48.36
48089;BME280;33867;50.314;7.802;2023-04-19T08:55:31;101040.47;;;15.42;50.42
48089;BME280;33867;50.314;7.802;2023-04-19T08:58:50;101042.59;;;15.30;51.13
48089;BME280;33867;50.314;7.802;2023-04-19T09:02:22;101038.47;;;15.70;51.40
48089;BME280;33867;50.314;7.802;2023-04-19T09:05:53;101035.81;;;15.52;46.91
48089;BME280;33867;50.314;7.802;2023-04-19T09:09:21;101049.34;;;14.73;49.17
48089;BME280;33867;50.314;7.802;2023-04-19T09:12:40;101035.56;;;14.11;51.38
48089;BME280;33867;50.314;7.802;2023-04-19T09:16:00;101032.16;;;14.37;52.67
48089;BME280;33867;50.314;7.802;2023-04-19T09:19:19;101028.44;;;15.01;50.88
48089;BME280;33867;50.314;7.802;2023-04-19T09:23:05;101021.75;;;15.13;49.32
48089;BME280;33867;50.314;7.802;2023-04-19T09:26:53;101007.72;;;15.95;48.61
48089;BME280;33867;50.314;7.802;2023-04-19T09:30:12;101016.06;;;15.24;49.13
48089;BME280;33867;50.314;7.802;2023-04-19T09:33:33;101002.56;;;15.58;49.34
48089;BME280;33867;50.314;7.802;2023-04-19T09:36:53;101015.63;;;15.11;46.97
48089;BME280;33867;50.314;7.802;2023-04-19T09:40:23;101008.84;;;15.76;45.58
48089;BME280;33867;50.314;7.802;2023-04-19T09:43:42;101005.56;;;16.49;44.33
48089;BME280;33867;50.314;7.802;2023-04-19T09:47:01;101005.09;;;16.12;45.53
48089;BME280;33867;50.314;7.802;2023-04-19T09:50:20;101002.84;;;16.49;47.32
48089;BME280;33867;50.314;7.802;2023-04-19T09:53:39;100996.28;;;16.76;44.52
48089;BME280;33867;50.314;7.802;2023-04-19T09:57:00;100988.41;;;16.49;45.24
48089;BME280;33867;50.314;7.802;2023-04-19T10:00:33;100992.63;;;16.43;45.47
48089;BME280;33867;50.314;7.802;2023-04-19T10:03:53;100983.78;;;16.41;47.10
48089;BME280;33867;50.314;7.802;2023-04-19T10:07:13;100982.44;;;16.53;45.00
48089;BME280;33867;50.314;7.802;2023-04-19T10:10:33;100975.41;;;16.85;45.77
48089;BME280;33867;50.314;7.802;2023-04-19T10:13:56;100975.03;;;17.29;43.76
48089;BME280;33867;50.314;7.802;2023-04-19T10:17:19;100972.31;;;16.80;43.14
48089;BME280;33867;50.314;7.802;2023-04-19T10:20:50;100971.16;;;17.87;43.16
48089;BME280;33867;50.314;7.802;2023-04-19T10:24:12;100957.56;;;18.49;41.77
48089;BME280;33867;50.314;7.802;2023-04-19T10:27:35;100955.50;;;17.89;43.28
48089;BME280;33867;50.314;7.802;2023-04-19T10:30:58;100967.22;;;18.28;36.29
48089;BME280;33867;50.314;7.802;2023-04-19T10:34:36;100939.13;;;19.34;37.32
48089;BME280;33867;50.314;7.802;2023-04-19T10:38:12;100955.16;;;18.99;36.79
48089;BME280;33867;50.314;7.802;2023-04-19T10:41:57;100952.66;;;19.13;34.85
48089;BME280;33867;50.314;7.802;2023-04-19T10:45:35;100972.31;;;17.29;35.68
48089;BME280;33867;50.314;7.802;2023-04-19T10:49:04;100966.63;;;18.10;36.05
48089;BME280;33867;50.314;7.802;2023-04-19T10:52:27;100945.63;;;17.88;35.76
48089;BME280;33867;50.314;7.802;2023-04-19T10:55:49;100952.38;;;18.31;35.69
48089;BME280;33867;50.314;7.802;2023-04-19T10:59:11;100938.56;;;18.32;33.58
48089;BME280;33867;50.314;7.802;2023-04-19T11:02:30;100930.50;;;20.04;34.96
48089;BME280;33867;50.314;7.802;2023-04-19T11:06:16;100916.84;;;19.60;33.33
48089;BME280;33867;50.314;7.802;2023-04-19T11:09:44;100921.84;;;19.04;35.58
48089;BME280;33867;50.314;7.802;2023-04-19T11:13:07;100929.25;;;20.07;35.75
48089;BME280;33867;50.314;7.802;2023-04-19T11:16:26;100914.66;;;20.72;35.92
48089;BME280;33867;50.314;7.802;2023-04-19T11:19:54;100915.41;;;20.87;32.76
48089;BME280;33867;50.314;7.802;2023-04-19T11:23:17;100912.81;;;21.07;30.54
48089;BME280;33867;50.314;7.802;2023-04-19T11:26:36;100915.63;;;19.92;29.59
48089;BME280;33867;50.314;7.802;2023-04-19T11:30:10;100906.19;;;19.50;32.33
48089;BME280;33867;50.314;7.802;2023-04-19T11:33:33;100912.16;;;18.56;32.85
48089;BME280;33867;50.314;7.802;2023-04-19T11:37:11;100896.88;;;19.30;34.86
48089;BME280;33867;50.314;7.802;2023-04-19T11:40:37;100882.53;;;18.53;35.11
48089;BME280;33867;50.314;7.802;2023-04-19T11:43:58;100879.25;;;19.33;31.53
48089;BME280;33867;50.314;7.802;2023-04-19T11:47:18;100880.41;;;21.11;32.18
48089;BME280;33867;50.314;7.802;2023-04-19T11:50:42;100866.59;;;21.53;32.74
48089;BME280;33867;50.314;7.802;2023-04-19T11:54:11;100855.28;;;21.00;32.75
48089;BME280;33867;50.314;7.802;2023-04-19T11:57:31;100865.63;;;21.05;32.64
48089;BME280;33867;50.314;7.802;2023-04-19T12:00:50;100864.03;;;22.00;32.50
48089;BME280;33867;50.314;7.802;2023-04-19T12:04:09;100858.72;;;21.37;31.34
48089;BME280;33867;50.314;7.802;2023-04-19T12:07:28;100867.31;;;19.63;32.15
48089;BME280;33867;50.314;7.802;2023-04-19T12:10:55;100864.38;;;21.36;32.56
48089;BME280;33867;50.314;7.802;2023-04-19T12:18:13;100861.31;;;20.89;28.10
48089;BME280;33867;50.314;7.802;2023-04-19T12:21:35;100855.88;;;19.89;29.44
48089;BME280;33867;50.314;7.802;2023-04-19T12:25:16;100857.69;;;19.23;29.39
48089;BME280;33867;50.314;7.802;2023-04-19T12:28:37;100852.69;;;20.43;30.77
48089;BME280;33867;50.314;7.802;2023-04-19T12:31:55;100841.28;;;20.39;29.22
48089;BME280;33867;50.314;7.802;2023-04-19T12:35:14;100827.31;;;21.33;26.09
48089;BME280;33867;50.314;7.802;2023-04-19T12:38:34;100837.19;;;19.56;28.88
48089;BME280;33867;50.314;7.802;2023-04-19T12:41:53;100836.41;;;19.33;28.44
48089;BME280;33867;50.314;7.802;2023-04-19T12:45:12;100836.75;;;18.86;29.91
48089;BME280;33867;50.314;7.802;2023-04-19T12:48:31;100828.53;;;21.30;30.55
48089;BME280;33867;50.314;7.802;2023-04-19T12:55:37;100794.53;;;22.67;27.06
48089;BME280;33867;50.314;7.802;2023-04-19T12:58:56;100809.88;;;20.57;28.98
48089;BME280;33867;50.314;7.802;2023-04-19T13:02:15;100793.81;;;22.05;26.57
48089;BME280;33867;50.314;7.802;2023-04-19T13:05:35;100786.75;;;21.63;26.80
48089;BME280;33867;50.314;7.802;2023-04-19T13:08:54;100780.75;;;23.13;25.73
48089;BME280;33867;50.314;7.802;2023-04-19T13:12:14;100781.44;;;22.69;24.94
48089;BME280;33867;50.314;7.802;2023-04-19T13:15:33;100775.22;;;23.33;27.29
48089;BME280;33867;50.314;7.802;2023-04-19T13:18:52;100771.78;;;23.38;25.73
48089;BME280;33867;50.314;7.802;2023-04-19T13:22:12;100770.03;;;20.26;26.35
48089;BME280;33867;50.314;7.802;2023-04-19T13:25:31;100757.91;;;19.20;28.67
48089;BME280;33867;50.314;7.802;2023-04-19T13:28:50;100752.97;;;21.49;27.50
48089;BME280;33867;50.314;7.802;2023-04-19T13:32:10;100754.78;;;20.38;25.14
48089;BME280;33867;50.314;7.802;2023-04-19T13:35:29;100756.56;;;21.50;24.51
48089;BME280;33867;50.314;7.802;2023-04-19T13:39:30;100753.34;;;20.98;26.56
48089;BME280;33867;50.314;7.802;2023-04-19T13:43:44;100734.72;;;21.89;26.28
48089;BME280;33867;50.314;7.802;2023-04-19T13:47:26;100734.03;;;20.44;25.21
48089;BME280;33867;50.314;7.802;2023-04-19T13:50:45;100733.00;;;21.75;24.76
48089;BME280;33867;50.314;7.802;2023-04-19T13:54:04;100720.38;;;21.87;23.52
48089;BME280;33867;50.314;7.802;2023-04-19T13:57:24;100719.50;;;23.06;25.45
48089;BME280;33867;50.314;7.802;2023-04-19T14:00:50;100725.34;;;23.68;24.07
48089;BME280;33867;50.314;7.802;2023-04-19T14:04:19;100719.13;;;24.42;23.12
48089;BME280;33867;50.314;7.802;2023-04-19T14:07:39;100719.84;;;24.56;21.54
48089;BME280;33867;50.314;7.802;2023-04-19T14:10:58;100709.06;;;22.17;20.41
48089;BME280;33867;50.314;7.802;2023-04-19T14:14:18;100712.47;;;20.97;22.80
48089;BME280;33867;50.314;7.802;2023-04-19T14:17:39;100711.47;;;20.14;24.15
48089;BME280;33867;50.314;7.802;2023-04-19T14:20:58;100694.44;;;21.90;23.91
48089;BME280;33867;50.314;7.802;2023-04-19T14:24:17;100696.38;;;22.56;23.94
48089;BME280;33867;50.314;7.802;2023-04-19T14:27:36;100699.28;;;22.61;22.87
48089;BME280;33867;50.314;7.802;2023-04-19T14:30:56;100694.28;;;22.38;23.82
48089;BME280;33867;50.314;7.802;2023-04-19T14:34:15;100687.72;;;21.93;21.78
48089;BME280;33867;50.314;7.802;2023-04-19T14:37:34;100686.56;;;21.54;24.26
48089;BME280;33867;50.314;7.802;2023-04-19T14:40:53;100691.59;;;20.55;25.54
48089;BME280;33867;50.314;7.802;2023-04-19T14:44:15;100688.25;;;19.61;26.83
48089;BME280;33867;50.314;7.802;2023-04-19T14:47:36;100697.75;;;17.57;24.97
48089;BME280;33867;50.314;7.802;2023-04-19T14:50:56;100700.31;;;16.24;25.21
48089;BME280;33867;50.314;7.802;2023-04-19T14:54:15;100692.97;;;16.33;28.08
48089;BME280;33867;50.314;7.802;2023-04-19T14:57:36;100702.72;;;15.78;28.19
48089;BME280;33867;50.314;7.802;2023-04-19T15:00:57;100695.53;;;17.83;28.71
48089;BME280;33867;50.314;7.802;2023-04-19T15:04:18;100692.56;;;18.45;27.42
48089;BME280;33867;50.314;7.802;2023-04-19T15:07:38;100689.13;;;18.81;25.89
48089;BME280;33867;50.314;7.802;2023-04-19T15:10:57;100685.81;;;18.56;25.27
48089;BME280;33867;50.314;7.802;2023-04-19T15:14:20;100683.00;;;18.93;25.44
48089;BME280;33867;50.314;7.802;2023-04-19T15:22:38;100677.44;;;18.42;23.66
48089;BME280;33867;50.314;7.802;2023-04-19T15:26:15;100695.31;;;19.19;23.60
48089;BME280;33867;50.314;7.802;2023-04-19T15:29:41;100679.44;;;18.11;24.96
48089;BME280;33867;50.314;7.802;2023-04-19T15:33:01;100688.75;;;18.98;25.26
48089;BME280;33867;50.314;7.802;2023-04-19T15:36:20;100664.28;;;18.46;24.92
48089;BME280;33867;50.314;7.802;2023-04-19T15:39:39;100686.94;;;17.17;25.41
48089;BME280;33867;50.314;7.802;2023-04-19T15:42:58;100690.84;;;16.84;28.00
48089;BME280;33867;50.314;7.802;2023-04-19T15:46:17;100693.81;;;17.05;27.30
48089;BME280;33867;50.314;7.802;2023-04-19T15:49:36;100695.41;;;15.95;29.45
48089;BME280;33867;50.314;7.802;2023-04-19T15:52:55;100697.78;;;16.23;29.36
48089;BME280;33867;50.314;7.802;2023-04-19T15:56:15;100698.78;;;16.14;28.16
48089;BME280;33867;50.314;7.802;2023-04-19T15:59:38;100700.31;;;16.08;29.65
48089;BME280;33867;50.314;7.802;2023-04-19T16:03:08;100708.81;;;15.81;29.41
48089;BME280;33867;50.314;7.802;2023-04-19T16:06:29;100699.44;;;15.00;30.06
48089;BME280;33867;50.314;7.802;2023-04-19T16:14:07;100713.41;;;14.79;29.36
48089;BME280;33867;50.314;7.802;2023-04-19T16:17:26;100709.53;;;15.24;32.16
48089;BME280;33867;50.314;7.802;2023-04-19T16:20:46;100716.81;;;15.15;31.37
48089;BME280;33867;50.314;7.802;2023-04-19T16:24:05;100721.41;;;14.55;29.30
48089;BME280;33867;50.314;7.802;2023-04-19T16:27:24;100713.84;;;15.01;30.92
48089;BME280;33867;50.314;7.802;2023-04-19T16:31:15;100719.59;;;15.56;31.12
48089;BME280;33867;50.314;7.802;2023-04-19T16:35:11;100720.56;;;15.39;29.03
48089;BME280;33867;50.314;7.802;2023-04-19T16:39:05;100722.38;;;15.14;28.91
48089;BME280;33867;50.314;7.802;2023-04-19T16:42:25;100727.75;;;14.98;27.20
48089;BME280;33867;50.314;7.802;2023-04-19T16:46:25;100712.91;;;14.76;28.39
48089;BME280;33867;50.314;7.802;2023-04-19T16:50:36;100720.28;;;14.14;27.67
48089;BME280;33867;50.314;7.802;2023-04-19T16:53:55;100719.38;;;13.69;27.29
48089;BME280;33867;50.314;7.802;2023-04-19T16:57:16;100716.44;;;13.98;30.53
48089;BME280;33867;50.314;7.802;2023-04-19T17:05:09;100725.72;;;13.15;28.29
48089;BME280;33867;50.314;7.802;2023-04-19T17:08:29;100715.84;;;13.51;32.22
48089;BME280;33867;50.314;7.802;2023-04-19T17:11:49;100709.00;;;13.83;33.79
48089;BME280;33867;50.314;7.802;2023-04-19T17:15:09;100710.81;;;13.74;30.27
48089;BME280;33867;50.314;7.802;2023-04-19T17:22:15;100708.41;;;13.89;31.00
48089;BME280;33867;50.314;7.802;2023-04-19T17:25:34;100710.28;;;13.53;30.76
48089;BME280;33867;50.314;7.802;2023-04-19T17:28:54;100707.16;;;13.30;32.03
48089;BME280;33867;50.314;7.802;2023-04-19T17:32:43;100721.25;;;12.96;31.35
48089;BME280;33867;50.314;7.802;2023-04-19T17:36:33;100728.25;;;12.62;33.07
48089;BME280;33867;50.314;7.802;2023-04-19T17:39:52;100724.22;;;12.66;33.70
48089;BME280;33867;50.314;7.802;2023-04-19T17:47:53;100730.28;;;12.40;35.78
48089;BME280;33867;50.314;7.802;2023-04-19T17:51:13;100738.69;;;12.27;35.95
48089;BME280;33867;50.314;7.802;2023-04-19T17:54:32;100731.78;;;12.06;36.45
48089;BME280;33867;50.314;7.802;2023-04-19T18:02:41;100731.75;;;11.48;33.70
48089;BME280;33867;50.314;7.802;2023-04-19T18:06:15;100731.75;;;11.38;33.95
48089;BME280;33867;50.314;7.802;2023-04-19T18:09:54;100734.81;;;11.24;35.70
48089;BME280;33867;50.314;7.802;2023-04-19T18:13:14;100739.38;;;11.33;38.66
48089;BME280;33867;50.314;7.802;2023-04-19T18:20:24;100744.13;;;11.00;37.20
48089;BME280;33867;50.314;7.802;2023-04-19T18:23:43;100744.91;;;10.81;36.56
48089;BME280;33867;50.314;7.802;2023-04-19T18:32:12;100751.34;;;10.60;39.41
48089;BME280;33867;50.314;7.802;2023-04-19T18:35:41;100759.50;;;10.28;39.91
48089;BME280;33867;50.314;7.802;2023-04-19T18:39:16;100753.16;;;10.17;41.75
48089;BME280;33867;50.314;7.802;2023-04-19T18:42:54;100757.19;;;10.02;40.63
48089;BME280;33867;50.314;7.802;2023-04-19T18:46:14;100757.66;;;10.07;42.83
48089;BME280;33867;50.314;7.802;2023-04-19T18:49:33;100753.59;;;9.81;41.80
48089;BME280;33867;50.314;7.802;2023-04-19T18:52:52;100758.44;;;9.66;40.26
48089;BME280;33867;50.314;7.802;2023-04-19T19:01:02;100764.53;;;9.36;40.96
48089;BME280;33867;50.314;7.802;2023-04-19T19:04:45;100771.75;;;9.35;40.93
48089;BME280;33867;50.314;7.802;2023-04-19T19:08:05;100769.56;;;9.18;42.52
48089;BME280;33867;50.314;7.802;2023-04-19T19:11:24;100783.59;;;8.99;42.84
48089;BME280;33867;50.314;7.802;2023-04-19T19:14:43;100781.69;;;8.90;42.02
48089;BME280;33867;50.314;7.802;2023-04-19T19:22:53;100785.31;;;8.56;44.96
48089;BME280;33867;50.314;7.802;2023-04-19T19:31:16;100784.72;;;8.17;46.30
48089;BME280;33867;50.314;7.802;2023-04-19T19:34:35;100793.94;;;8.02;45.87